createdAt,value
2019-01-24T00:00:34.365Z,95998.86
2019-01-24T00:03:06.246Z,95989.63
2019-01-24T00:05:37.860Z,95980.75
2019-01-24T00:08:09.510Z,95979.11
2019-01-24T00:10:41.188Z,95980.52
2019-01-24T00:13:12.788Z,95969.31
2019-01-24T00:15:45.341Z,95963.94
2019-01-24T00:18:17.085Z,95964.70
2019-01-24T00:20:48.728Z,95958.61
2019-01-24T00:23:20.314Z,95952.68
2019-01-24T00:25:52.172Z,95962.60
2019-01-24T00:28:23.822Z,95970.12
2019-01-24T00:30:55.438Z,95993.00
2019-01-24T00:33:27.041Z,95986.80
2019-01-24T00:35:59.022Z,95986.47
2019-01-24T00:38:30.659Z,95991.45
2019-01-24T00:41:03.411Z,95993.46
2019-01-24T00:43:35.247Z,95999.45
2019-01-24T00:46:07.045Z,95994.63
2019-01-24T00:48:38.707Z,96000.34
2019-01-24T00:51:10.283Z,95999.08
2019-01-24T00:53:41.899Z,95989.27
2019-01-24T00:56:13.451Z,95980.72
2019-01-24T00:58:44.991Z,95980.02
2019-01-24T01:01:16.635Z,95968.69
2019-01-24T01:03:48.169Z,95956.76
2019-01-24T01:06:19.750Z,95966.09
2019-01-24T01:08:51.352Z,95963.21
2019-01-24T01:11:22.877Z,95955.70
2019-01-24T01:13:54.605Z,95958.38
2019-01-24T01:16:28.499Z,95949.97
2019-01-24T01:19:00.108Z,95950.11
2019-01-24T01:21:31.749Z,95947.41
2019-01-24T01:24:03.345Z,95956.27
2019-01-24T01:26:34.891Z,95954.42
2019-01-24T01:29:07.263Z,95949.74
2019-01-24T01:31:38.841Z,95954.42
2019-01-24T01:34:10.551Z,95956.99
2019-01-24T01:36:42.081Z,95955.61
2019-01-24T01:39:13.561Z,95959.69
2019-01-24T01:41:45.151Z,95949.55
2019-01-24T01:44:16.795Z,95948.95
2019-01-24T01:46:48.302Z,95948.95
2019-01-24T01:49:19.823Z,95943.12
2019-01-24T01:51:51.481Z,95942.66
2019-01-24T01:54:23.131Z,95936.81
2019-01-24T01:56:54.745Z,95931.09
2019-01-24T01:59:26.299Z,95928.56
2019-01-24T02:01:57.939Z,95929.63
2019-01-24T02:04:29.499Z,95922.30
2019-01-24T02:07:01.171Z,95924.37
2019-01-24T02:09:32.706Z,95919.83
2019-01-24T02:12:04.254Z,95925.23
2019-01-24T02:14:35.876Z,95921.25
2019-01-24T02:17:07.556Z,95934.59
2019-01-24T02:19:39.264Z,95932.92
2019-01-24T02:22:10.947Z,95928.84
2019-01-24T02:24:42.613Z,95928.28
2019-01-24T02:27:14.160Z,95933.52
2019-01-24T02:29:45.833Z,95927.00
2019-01-24T02:32:17.493Z,95922.44
2019-01-24T02:34:49.822Z,95920.92
2019-01-24T02:37:21.746Z,95913.56
2019-01-24T02:39:53.359Z,95913.20
2019-01-24T02:42:25.041Z,95914.60
2019-01-24T02:44:56.676Z,95924.74
2019-01-24T02:47:28.208Z,95907.16
2019-01-24T02:49:59.682Z,95906.67
2019-01-24T02:52:31.392Z,95900.49
2019-01-24T02:55:03.124Z,95895.36
2019-01-24T02:57:34.776Z,95898.88
2019-01-24T03:00:08.226Z,95899.82
2019-01-24T03:02:39.763Z,95896.19
2019-01-24T03:05:13.785Z,95897.23
2019-01-24T03:07:45.491Z,95896.66
2019-01-24T03:10:17.155Z,95897.02
2019-01-24T03:12:49.029Z,95891.06
2019-01-24T03:15:21.980Z,95889.19
2019-01-24T03:17:54.614Z,95886.03
2019-01-24T03:20:26.260Z,95879.85
2019-01-24T03:22:57.809Z,95875.80
2019-01-24T03:25:29.427Z,95874.27
2019-01-24T03:28:01.117Z,95869.84
2019-01-24T03:30:32.733Z,95863.42
2019-01-24T03:33:04.366Z,95874.39
2019-01-24T03:35:35.961Z,95868.20
2019-01-24T03:38:07.608Z,95861.10
2019-01-24T03:40:39.139Z,95864.13
2019-01-24T03:43:10.752Z,95863.54
2019-01-24T03:45:42.431Z,95861.10
2019-01-24T03:48:14.034Z,95867.63
2019-01-24T03:50:45.647Z,95870.32
2019-01-24T03:53:17.178Z,95870.89
2019-01-24T03:55:48.831Z,95874.72
2019-01-24T03:58:20.472Z,95867.13
2019-01-24T04:00:52.075Z,95869.34
2019-01-24T04:03:23.618Z,95865.95
2019-01-24T04:05:55.136Z,95863.77
2019-01-24T04:08:26.720Z,95868.52
2019-01-24T04:10:58.346Z,95868.91
2019-01-24T04:13:29.912Z,95875.28
2019-01-24T04:16:01.601Z,95872.49
2019-01-24T04:18:33.175Z,95874.25
2019-01-24T04:21:04.707Z,95880.41
2019-01-24T04:23:36.190Z,95879.97
2019-01-24T04:26:07.717Z,95889.98
2019-01-24T04:28:39.181Z,95886.47
2019-01-24T04:31:10.737Z,95889.76
2019-01-24T04:33:42.252Z,95893.95
2019-01-24T04:36:14.456Z,95897.45
2019-01-24T04:38:46.350Z,95909.10
2019-01-24T04:41:17.880Z,95908.05
2019-01-24T04:43:49.451Z,95916.22
2019-01-24T04:46:20.885Z,95907.37
2019-01-24T04:48:52.402Z,95910.15
2019-01-24T04:51:23.948Z,95909.34
2019-01-24T04:53:55.451Z,95909.25
2019-01-24T04:56:27.019Z,95914.39
2019-01-24T04:58:58.471Z,95913.80
2019-01-24T05:01:29.991Z,95908.89
2019-01-24T05:04:01.612Z,95906.32
2019-01-24T05:06:33.222Z,95912.97
2019-01-24T05:09:06.123Z,95920.91
2019-01-24T05:11:37.662Z,95906.55
2019-01-24T05:14:11.627Z,95903.97
2019-01-24T05:16:43.182Z,95895.56
2019-01-24T05:19:14.821Z,95905.59
2019-01-24T05:21:46.420Z,95899.04
2019-01-24T05:24:18.153Z,95898.94
2019-01-24T05:26:49.743Z,95901.61
2019-01-24T05:29:21.580Z,95897.40
2019-01-24T05:31:53.021Z,95901.95
2019-01-24T05:34:24.511Z,95909.06
2019-01-24T05:36:55.921Z,95903.95
2019-01-24T05:39:27.481Z,95897.66
2019-01-24T05:41:58.902Z,95896.24
2019-01-24T05:44:30.546Z,95891.93
2019-01-24T05:47:03.398Z,95893.67
2019-01-24T05:49:35.011Z,95880.68
2019-01-24T05:52:06.546Z,95874.52
2019-01-24T05:54:38.131Z,95880.01
2019-01-24T05:57:09.701Z,95877.47
2019-01-24T05:59:42.842Z,95869.78
2019-01-24T06:02:14.435Z,95867.42
2019-01-24T06:04:45.928Z,95869.30
2019-01-24T06:07:17.631Z,95858.20
2019-01-24T06:09:49.231Z,95866.24
2019-01-24T06:12:20.670Z,95870.09
2019-01-24T06:14:52.242Z,95866.25
2019-01-24T06:17:23.736Z,95871.52
2019-01-24T06:19:55.383Z,95866.81
2019-01-24T06:22:26.872Z,95859.10
2019-01-24T06:24:58.449Z,95853.86
2019-01-24T06:27:29.937Z,95849.68
2019-01-24T06:30:01.592Z,95842.87
2019-01-24T06:32:33.090Z,95845.20
2019-01-24T06:35:04.790Z,95843.20
2019-01-24T06:37:36.298Z,95854.20
2019-01-24T06:40:09.436Z,95857.92
2019-01-24T06:42:40.941Z,95857.92
2019-01-24T06:45:15.161Z,95865.39
2019-01-24T06:47:46.650Z,95871.09
2019-01-24T06:50:18.582Z,95871.09
2019-01-24T06:52:50.101Z,95865.27
2019-01-24T06:55:29.093Z,95864.94
2019-01-24T06:58:00.598Z,95864.47
2019-01-24T07:00:33.621Z,95861.77
2019-01-24T07:03:05.290Z,95857.69
2019-01-24T07:05:36.942Z,95863.98
2019-01-24T07:08:08.757Z,95861.41
2019-01-24T07:10:40.402Z,95858.48
2019-01-24T07:13:11.870Z,95855.25
2019-01-24T07:15:43.332Z,95851.50
2019-01-24T07:18:14.868Z,95853.90
2019-01-24T07:20:46.360Z,95856.00
2019-01-24T07:23:17.935Z,95851.98
2019-01-24T07:25:50.961Z,95845.09
2019-01-24T07:28:22.492Z,95850.92
2019-01-24T07:30:54.041Z,95845.92
2019-01-24T07:33:25.655Z,95842.62
2019-01-24T07:36:02.111Z,95845.09
2019-01-24T07:38:30.683Z,95838.80
2019-01-24T07:41:02.374Z,95831.74
2019-01-24T07:43:33.968Z,95836.10
2019-01-24T07:46:08.705Z,95831.05
2019-01-24T07:48:40.392Z,95841.62
2019-01-24T07:51:12.053Z,95834.17
2019-01-24T07:53:43.628Z,95841.52
2019-01-24T07:56:15.227Z,95834.88
2019-01-24T07:58:46.835Z,95840.19
2019-01-24T08:01:18.551Z,95845.32
2019-01-24T08:04:17.370Z,95851.16
2019-01-24T08:11:30.782Z,95857.39
2019-01-24T08:14:02.331Z,95856.37
2019-01-24T08:16:33.944Z,95857.69
2019-01-24T08:19:05.421Z,95860.62
2019-01-24T08:22:35.414Z,95869.48
2019-01-24T08:25:30.950Z,95862.13
2019-01-24T08:28:04.383Z,95844.77
2019-01-24T08:30:36.230Z,95829.49
2019-01-24T08:33:07.779Z,95828.88
2019-01-24T08:35:39.265Z,95829.70
2019-01-24T08:38:10.767Z,95834.47
2019-01-24T08:40:42.345Z,95835.85
2019-01-24T08:43:13.811Z,95846.95
2019-01-24T08:45:45.332Z,95840.27
2019-01-24T08:48:16.851Z,95842.73
2019-01-24T08:50:48.598Z,95849.95
2019-01-24T08:55:29.794Z,95854.98
2019-01-24T08:57:40.086Z,95855.31
2019-01-24T09:00:14.854Z,95836.27
2019-01-24T09:02:46.381Z,95813.38
2019-01-24T09:05:18.140Z,95828.20
2019-01-24T09:07:49.734Z,95824.53
2019-01-24T09:10:23.547Z,95860.74
2019-01-24T09:12:55.112Z,95862.13
2019-01-24T09:15:27.653Z,95866.25
2019-01-24T09:17:59.276Z,95862.30
2019-01-24T09:20:32.215Z,95858.87
2019-01-24T09:23:04.139Z,95847.57
2019-01-24T09:25:35.702Z,95843.72
2019-01-24T09:28:07.292Z,95837.34
2019-01-24T09:30:38.703Z,95838.95
2019-01-24T09:33:10.365Z,95830.27
2019-01-24T09:35:41.841Z,95830.05
2019-01-24T09:38:13.509Z,95823.63
2019-01-24T09:40:45.187Z,95830.36
2019-01-24T09:43:16.741Z,95840.19
2019-01-24T09:45:48.325Z,95832.97
2019-01-24T09:48:19.854Z,95827.38
2019-01-24T09:50:51.447Z,95824.52
2019-01-24T09:53:23.152Z,95829.61
2019-01-24T09:55:56.981Z,95823.78
2019-01-24T09:58:28.515Z,95818.31
2019-01-24T10:01:00.035Z,95817.70
2019-01-24T10:03:31.742Z,95810.06
2019-01-24T10:06:03.388Z,95810.28
2019-01-24T10:08:35.029Z,95805.71
2019-01-24T10:11:06.485Z,95797.98
2019-01-24T10:13:37.945Z,95786.87
2019-01-24T10:16:09.605Z,95794.42
2019-01-24T10:18:41.171Z,95795.57
2019-01-24T10:21:12.829Z,95792.06
2019-01-24T10:23:44.308Z,95790.28
2019-01-24T10:26:15.818Z,95787.52
2019-01-24T10:28:47.390Z,95788.96
2019-01-24T10:31:18.861Z,95787.89
2019-01-24T10:33:50.562Z,95780.78
2019-01-24T10:36:22.108Z,95779.96
2019-01-24T10:38:53.576Z,95776.52
2019-01-24T10:41:25.196Z,95777.87
2019-01-24T10:43:56.791Z,95777.52
2019-01-24T10:46:28.501Z,95776.34
2019-01-24T10:49:00.097Z,95776.27
2019-01-24T10:51:31.766Z,95771.15
2019-01-24T10:54:03.339Z,95772.96
2019-01-24T10:56:35.309Z,95770.46
2019-01-24T10:59:06.941Z,95767.95
2019-01-24T11:01:38.678Z,95762.25
2019-01-24T11:04:10.257Z,95771.02
2019-01-24T11:06:41.888Z,95764.44
2019-01-24T11:09:13.770Z,95760.91
2019-01-24T11:11:45.507Z,95764.14
2019-01-24T11:14:17.035Z,95771.53
2019-01-24T11:16:48.603Z,95767.52
2019-01-24T11:19:20.182Z,95764.57
2019-01-24T11:21:51.637Z,95761.99
2019-01-24T11:24:23.319Z,95754.87
2019-01-24T11:26:55.074Z,95758.47
2019-01-24T11:29:26.781Z,95755.94
2019-01-24T11:31:58.366Z,95755.47
2019-01-24T11:34:30.156Z,95759.06
2019-01-24T11:37:01.843Z,95760.16
2019-01-24T11:39:34.272Z,95756.61
2019-01-24T11:42:06.339Z,95751.70
2019-01-24T11:44:38.077Z,95755.96
2019-01-24T11:47:10.958Z,95748.69
2019-01-24T11:49:42.855Z,95755.00
2019-01-24T11:52:14.365Z,95754.48
2019-01-24T11:54:45.979Z,95748.67
2019-01-24T11:57:17.741Z,95744.66
2019-01-24T11:59:49.314Z,95748.53
2019-01-24T12:02:20.861Z,95758.13
2019-01-24T12:04:52.449Z,95756.11
2019-01-24T12:07:24.037Z,95762.55
2019-01-24T12:09:55.639Z,95759.70
2019-01-24T12:12:27.271Z,95760.53
2019-01-24T12:14:58.884Z,95762.79
2019-01-24T12:17:30.478Z,95756.81
2019-01-24T12:20:02.037Z,95751.12
2019-01-24T12:22:33.761Z,95753.84
2019-01-24T12:25:05.824Z,95749.66
2019-01-24T12:27:37.424Z,95741.98
2019-01-24T12:30:12.571Z,95743.27
2019-01-24T12:32:44.359Z,95739.27
2019-01-24T12:35:15.918Z,95747.61
2019-01-24T12:37:47.517Z,95751.12
2019-01-24T12:40:19.156Z,95751.30
2019-01-24T12:42:50.762Z,95752.12
2019-01-24T12:45:24.878Z,95752.91
2019-01-24T12:47:56.589Z,95755.84
2019-01-24T12:50:28.253Z,95753.06
2019-01-24T12:52:59.828Z,95748.31
2019-01-24T12:55:31.531Z,95748.77
2019-01-24T12:58:04.501Z,95754.14
2019-01-24T13:00:38.282Z,95747.70
2019-01-24T13:03:09.978Z,95747.75
2019-01-24T13:05:41.621Z,95742.42
2019-01-24T13:08:13.127Z,95743.52
2019-01-24T13:14:00.922Z,95753.88
2019-01-24T13:16:32.416Z,95751.92
2019-01-24T13:19:04.224Z,95747.05
2019-01-24T13:22:06.624Z,95750.36
2019-01-24T13:24:38.255Z,95755.66
2019-01-24T13:27:09.931Z,95760.30
2019-01-24T13:29:41.511Z,95760.98
2019-01-24T13:32:13.100Z,95754.95
2019-01-24T13:34:44.671Z,95768.36
2019-01-24T13:37:16.333Z,95760.77
2019-01-24T13:39:48.080Z,95758.26
2019-01-24T13:42:19.631Z,95761.53
2019-01-24T13:44:51.211Z,95767.23
2019-01-24T13:47:22.817Z,95777.92
2019-01-24T13:53:11.590Z,95777.92
2019-01-24T13:55:43.295Z,95771.81
2019-01-24T13:58:14.715Z,95770.13
2019-01-24T14:00:46.291Z,95772.83
2019-01-24T14:03:47.001Z,95767.96
2019-01-24T14:06:18.472Z,95766.78
2019-01-24T14:08:50.083Z,95769.65
2019-01-24T14:11:21.580Z,95770.94
2019-01-24T14:13:53.338Z,95772.09
2019-01-24T14:16:25.107Z,95771.66
2019-01-24T14:18:56.823Z,95769.20
2019-01-24T14:21:29.576Z,95771.77
2019-01-24T14:24:01.057Z,95787.53
2019-01-24T14:26:32.661Z,95783.13
2019-01-24T14:29:04.230Z,95787.34
2019-01-24T14:31:35.981Z,95787.23
2019-01-24T14:34:07.497Z,95792.75
2019-01-24T14:36:39.389Z,95785.66
2019-01-24T14:39:11.771Z,95792.45
2019-01-24T14:41:43.347Z,95801.08
2019-01-24T14:44:15.018Z,95803.98
2019-01-24T14:46:46.639Z,95798.67
2019-01-24T14:49:19.678Z,95804.25
2019-01-24T14:51:51.738Z,95806.75
2019-01-24T14:54:23.410Z,95806.20
2019-01-24T14:56:55.085Z,95811.30
2019-01-24T14:59:26.691Z,95806.81
2019-01-24T15:01:58.391Z,95799.41
2019-01-24T15:04:30.046Z,95818.31
2019-01-24T15:07:01.467Z,95816.42
2019-01-24T15:09:33.058Z,95812.88
2019-01-24T15:12:04.758Z,95811.36
2019-01-24T15:14:36.329Z,95816.75
2019-01-24T15:17:08.510Z,95817.43
2019-01-24T15:19:40.083Z,95823.36
2019-01-24T15:22:40.175Z,95817.31
2019-01-24T15:25:32.754Z,95825.41
2019-01-24T15:28:04.401Z,95833.64
2019-01-24T15:30:43.657Z,95823.97
2019-01-24T15:33:16.711Z,95824.46
2019-01-24T15:36:12.801Z,95826.87
2019-01-24T15:38:44.257Z,95827.88
2019-01-24T15:41:25.071Z,95832.47
2019-01-24T15:43:56.738Z,95840.45
2019-01-24T15:46:47.131Z,95838.66
2019-01-24T15:53:18.034Z,95839.27
2019-01-24T15:55:49.765Z,95838.22
2019-01-24T15:58:21.432Z,95841.19
2019-01-24T16:00:53.005Z,95838.19
2019-01-24T16:03:24.631Z,95848.59
2019-01-24T16:05:56.135Z,95848.91
2019-01-24T16:08:27.665Z,95851.01
2019-01-24T16:10:59.277Z,95842.48
2019-01-24T16:13:30.758Z,95850.06
2019-01-24T16:16:02.331Z,95850.21
2019-01-24T16:18:33.883Z,95850.44
2019-01-24T16:21:05.608Z,95852.09
2019-01-24T16:23:37.137Z,95853.63
2019-01-24T16:26:08.842Z,95850.47
2019-01-24T16:28:40.270Z,95856.76
2019-01-24T16:31:11.917Z,95855.69
2019-01-24T16:33:43.388Z,95861.89
2019-01-24T16:36:15.009Z,95863.28
2019-01-24T16:38:46.823Z,95867.39
2019-01-24T16:41:18.397Z,95867.75
2019-01-24T16:43:50.076Z,95871.45
2019-01-24T16:46:21.621Z,95872.06
2019-01-24T16:48:53.351Z,95869.34
2019-01-24T16:51:24.934Z,95876.70
2019-01-24T16:53:56.539Z,95879.52
2019-01-24T16:56:28.091Z,95882.78
2019-01-24T16:58:59.623Z,95885.81
2019-01-24T17:01:31.164Z,95889.55
2019-01-24T17:04:02.763Z,95898.55
2019-01-24T17:06:34.315Z,95902.97
2019-01-24T17:09:09.358Z,95898.77
2019-01-24T17:11:41.036Z,95897.00
2019-01-24T17:14:13.981Z,95895.03
2019-01-24T17:16:45.499Z,95896.20
2019-01-24T17:19:17.081Z,95889.66
2019-01-24T17:21:48.702Z,95893.98
2019-01-24T17:24:20.313Z,95886.86
2019-01-24T17:26:51.901Z,95891.39
2019-01-24T17:29:23.617Z,95889.55
2019-01-24T17:31:55.248Z,95892.20
2019-01-24T17:34:26.924Z,95898.63
2019-01-24T17:36:58.452Z,95903.41
2019-01-24T17:39:29.852Z,95903.98
2019-01-24T17:42:01.391Z,95908.78
2019-01-24T17:44:32.791Z,95911.59
2019-01-24T17:47:04.259Z,95911.11
2019-01-24T17:49:35.831Z,95911.91
2019-01-24T17:52:07.475Z,95903.41
2019-01-24T17:54:39.051Z,95914.00
2019-01-24T17:57:10.641Z,95917.52
2019-01-24T17:59:42.214Z,95924.05
2019-01-24T18:02:13.896Z,95927.77
2019-01-24T18:04:45.431Z,95934.30
2019-01-24T18:07:16.964Z,95938.02
2019-01-24T18:09:48.534Z,95939.89
2019-01-24T18:12:20.071Z,95944.70
2019-01-24T18:14:51.730Z,95944.44
2019-01-24T18:17:23.180Z,95945.84
2019-01-24T18:19:54.845Z,95947.48
2019-01-24T18:22:26.339Z,95949.69
2019-01-24T18:24:57.845Z,95953.66
2019-01-24T18:27:29.399Z,95963.33
2019-01-24T18:30:01.005Z,95969.17
2019-01-24T18:32:32.482Z,95972.89
2019-01-24T18:35:04.173Z,95968.92
2019-01-24T18:37:35.620Z,95970.91
2019-01-24T18:40:07.884Z,95974.75
2019-01-24T18:42:40.741Z,95972.19
2019-01-24T18:45:15.133Z,95976.37
2019-01-24T18:47:47.219Z,95964.67
2019-01-24T18:50:21.012Z,95963.27
2019-01-24T18:52:52.533Z,95961.82
2019-01-24T18:55:24.550Z,95961.00
2019-01-24T18:57:56.171Z,95963.56
2019-01-24T19:00:34.283Z,95971.33
2019-01-24T19:03:07.851Z,95978.48
2019-01-24T19:05:40.052Z,95984.14
2019-01-24T19:08:11.857Z,95985.47
2019-01-24T19:10:43.618Z,95982.08
2019-01-24T19:13:15.287Z,95976.91
2019-01-24T19:15:48.901Z,95969.34
2019-01-24T19:18:20.486Z,95978.16
2019-01-24T19:20:52.258Z,95989.89
2019-01-24T19:23:23.890Z,95991.76
2019-01-24T19:25:55.485Z,95991.63
2019-01-24T19:28:27.209Z,95995.02
2019-01-24T19:30:58.862Z,95994.89
2019-01-24T19:33:30.499Z,95994.30
2019-01-24T19:36:02.063Z,96001.05
2019-01-24T19:38:33.662Z,96012.24
2019-01-24T19:41:05.161Z,96008.05
2019-01-24T19:43:36.792Z,96013.28
2019-01-24T19:46:08.292Z,96026.67
2019-01-24T19:48:39.876Z,96025.37
2019-01-24T19:51:11.610Z,96029.80
2019-01-24T19:53:43.287Z,96030.05
2019-01-24T19:56:14.946Z,96023.30
2019-01-24T19:58:46.521Z,96034.06
2019-01-24T20:01:18.222Z,96028.94
2019-01-24T20:03:49.798Z,96033.62
2019-01-24T20:06:21.439Z,96037.61
2019-01-24T20:08:59.943Z,96036.77
2019-01-24T20:11:26.403Z,96041.61
2019-01-24T20:13:57.964Z,96045.98
2019-01-24T20:16:30.693Z,96052.77
2019-01-24T20:19:02.339Z,96061.36
2019-01-24T20:21:33.891Z,96078.09
2019-01-24T20:24:05.624Z,96067.93
2019-01-24T20:26:37.215Z,96065.53
2019-01-24T20:29:08.811Z,96058.25
2019-01-24T20:31:41.559Z,96059.79
2019-01-24T20:34:13.160Z,96072.48
2019-01-24T20:36:45.993Z,96071.31
2019-01-24T20:39:17.471Z,96062.78
2019-01-24T20:41:50.076Z,96063.17
2019-01-24T20:44:21.705Z,96064.97
2019-01-24T20:46:53.371Z,96071.97
2019-01-24T20:49:24.983Z,96076.81
2019-01-24T20:51:56.573Z,96080.19
2019-01-24T20:54:28.062Z,96080.27
2019-01-24T20:56:59.519Z,96084.19
2019-01-24T20:59:32.077Z,96084.71
2019-01-24T21:02:03.624Z,96082.60
2019-01-24T21:04:35.169Z,96092.68
2019-01-24T21:07:06.604Z,96096.22
2019-01-24T21:09:38.081Z,96096.83
2019-01-24T21:12:09.544Z,96101.71
2019-01-24T21:14:41.084Z,96100.59
2019-01-24T21:17:12.778Z,96103.03
2019-01-24T21:19:44.432Z,96105.55
2019-01-24T21:22:16.032Z,96106.98
2019-01-24T21:24:47.598Z,96114.95
2019-01-24T21:27:19.277Z,96120.27
2019-01-24T21:29:50.871Z,96112.39
2019-01-24T21:32:22.459Z,96114.33
2019-01-24T21:34:54.002Z,96108.35
2019-01-24T21:37:25.554Z,96113.10
2019-01-24T21:39:57.122Z,96109.62
2019-01-24T21:42:28.573Z,96112.11
2019-01-24T21:45:00.289Z,96110.48
2019-01-24T21:47:31.841Z,96119.28
2019-01-24T21:50:03.450Z,96128.96
2019-01-24T21:52:35.136Z,96126.11
2019-01-24T21:55:07.700Z,96129.39
2019-01-24T21:57:40.469Z,96124.61
2019-01-24T22:00:13.896Z,96126.71
2019-01-24T22:02:45.601Z,96124.09
2019-01-24T22:05:18.138Z,96132.29
2019-01-24T22:07:49.790Z,96128.98
2019-01-24T22:10:24.004Z,96130.41
2019-01-24T22:12:55.519Z,96138.55
2019-01-24T22:15:29.020Z,96139.64
2019-01-24T22:18:00.796Z,96141.29
2019-01-24T22:20:33.534Z,96124.98
2019-01-24T22:23:07.301Z,96128.65
2019-01-24T22:25:38.981Z,96128.98
2019-01-24T22:28:10.621Z,96133.38
2019-01-24T22:30:50.305Z,96138.58
2019-01-24T22:33:21.921Z,96142.26
2019-01-24T22:35:53.505Z,96139.30
2019-01-24T22:38:25.117Z,96146.13
2019-01-24T22:40:56.580Z,96147.41
2019-01-24T22:43:28.119Z,96153.30
2019-01-24T22:45:59.545Z,96150.52
2019-01-24T22:48:31.019Z,96149.40
2019-01-24T22:51:02.550Z,96152.19
2019-01-24T22:53:34.151Z,96149.63
2019-01-24T22:56:06.123Z,96147.21
2019-01-24T22:58:37.700Z,96138.98
2019-01-24T23:01:41.721Z,96150.77
2019-01-24T23:04:15.618Z,96155.22
2019-01-24T23:06:47.111Z,96158.69
2019-01-24T23:09:20.178Z,96155.47
2019-01-24T23:11:51.741Z,96149.27
2019-01-24T23:14:23.203Z,96156.30
2019-01-24T23:16:54.617Z,96151.77
2019-01-24T23:19:27.271Z,96151.37
2019-01-24T23:21:58.943Z,96141.56
2019-01-24T23:24:30.541Z,96151.73
2019-01-24T23:27:02.120Z,96138.55
2019-01-24T23:29:33.606Z,96132.34
2019-01-24T23:32:05.480Z,96135.64
2019-01-24T23:34:37.057Z,96137.50
2019-01-24T23:37:08.691Z,96133.52
2019-01-24T23:39:41.879Z,96134.66
2019-01-24T23:42:13.392Z,96130.78
2019-01-24T23:44:45.570Z,96132.06
2019-01-24T23:47:17.131Z,96130.67
2019-01-24T23:49:48.603Z,96125.14
2019-01-24T23:52:20.179Z,96125.26
2019-01-24T23:54:51.694Z,96132.13
2019-01-24T23:57:23.940Z,96138.81
2019-01-24T23:59:55.811Z,96149.86
